Terminal Aerodrome Forecast
Issued by NWS Austin/San Antonio, TX

Home | Current Version | Previous Version | Text Only | Print | Product List | Glossary On
Versions: 1 2 3 4 5 6 7 8 9 10 11 12 13 14 15 16 17 18 19 20 21 22 23 24 25 26 27
807
FTUS44 KEWX 240808 AAA
TAFAUS
TAF AMD
KAUS 240808Z 2408/2512 15010KT P6SM SCT025 BKN035
     FM240900 15005KT P6SM BKN025 OVC035
     FM241100 16005KT P6SM OVC007
     FM241200 16005KT 3SM BR OVC005
     FM241500 15010KT P6SM OVC010
     FM241900 15012KT P6SM BKN025
     FM242200 15012KT P6SM BKN050
     FM250300 15010KT P6SM BKN015=

USA.gov is the U.S. government's official web portal to all federal, state and local government web resources and services.